Flight Track Log - Related Links

Times and Time Zones

All times are in EDT time to prevent confusion due to time zone crossing. See the AFL1302 flight status page for this flight to view local times or setup timezone preferences in your user account.

Time Position Orientation Groundspeed Altitude Reporting Facility
EDT Latitude Longitude Course Direction KTS MPH feet Rate Location/Type
Thu 10:01:25 AM 55.9664 37.3987 256° West 153 176 900  Level FlightAware ADS-B
Thu 10:06:57 AM 55.6776 36.9873 158° South 360 414 11,000 1,688 Climbing FlightAware ADS-B
Thu 10:07:24 AM 55.6360 37.0262 142° Southeast 359 413 11,000 1,983 Level FlightAware ADS-B
Thu 10:10:59 AM 55.3591 37.4870 138° Southeast 423 487 19,000 2,057 Climbing FlightAware ADS-B
Thu 10:11:00 AM 55.2772 37.2708 159° South  Level Estimated
Thu 10:12:07 AM 55.2588 37.6471 138° Southeast 431 496 20,700  Level FlightAware ADS-B
Thu 10:15:28 AM 54.8935 37.9074 161° South 457 526 26,600 1,777 Climbing FlightAware ADS-B
Thu 10:16:00 AM 54.8179 37.9537 161° South 462 532 27,600 1,522 Climbing FlightAware ADS-B
Thu 10:16:35 AM 54.7582 37.9901 161° South 472 543 28,300 1,200 Climbing FlightAware ADS-B
Thu 10:17:10 AM 54.6736 38.0416 161° South 474 545 29,000 1,333 Climbing FlightAware ADS-B
Thu 10:18:23 AM 54.5224 38.1331 161° South 476 548 30,700 1,366 Climbing FlightAware ADS-B
Thu 10:19:13 AM 54.4199 38.1945 161° South 477 549 31,800 1,333 Climbing FlightAware ADS-B
Thu 10:20:02 AM 54.3297 38.2545 155° Southeast 476 548 32,900 1,281 Climbing FlightAware ADS-B
Thu 10:20:42 AM 54.2515 38.3171 155° Southeast 471 542 33,700 869 Climbing FlightAware ADS-B
Thu 10:22:27 AM 54.0354 38.4862 155° Southeast 462 532 35,000 523 Climbing FlightAware ADS-B
Thu 10:23:11 AM 53.9499 38.5529 155° Southeast 461 531 35,000  Level FlightAware ADS-B
Thu 10:23:41 AM 53.8904 38.5989 156° South 461 531 35,000  Level FlightAware ADS-B
Thu 10:24:13 AM 53.8298 38.6457 155° Southeast 459 528 35,000  Level FlightAware ADS-B
Thu 10:24:58 AM 53.7431 38.7127 156° South 457 526 35,000  Level FlightAware ADS-B
Thu 10:25:38 AM 53.6675 38.7706 156° South 457 526 35,000  Level FlightAware ADS-B
Thu 10:26:12 AM 53.6006 38.8217 156° South 457 526 35,000  Level FlightAware ADS-B
Thu 10:26:56 AM 53.5183 38.8843 156° South 458 527 35,000  Level FlightAware ADS-B
Thu 10:27:27 AM 53.4706 38.9205 156° South 459 528 35,000  Level FlightAware ADS-B
Thu 10:28:12 AM 53.3698 38.9965 156° South 459 528 35,000  Level FlightAware ADS-B
Thu 10:28:42 AM 53.3106 39.0410 156° South 461 531 35,000  Level FlightAware ADS-B
Thu 10:29:12 AM 53.2539 39.0835 156° South 462 532 35,000  Level FlightAware ADS-B
Thu 10:29:57 AM 53.1650 39.1499 156° South 464 534 35,000  Level FlightAware ADS-B
Thu 10:30:42 AM 53.0790 39.2139 156° South 464 534 35,000  Level FlightAware ADS-B
Thu 10:31:13 AM 53.0235 39.2550 156° South 464 534 35,000  Level FlightAware ADS-B
Thu 10:31:57 AM 52.9297 39.3242 156° South 463 533 35,000  Level FlightAware ADS-B
Thu 10:32:41 AM 52.8495 39.3831 156° South 464 534 35,000  Level FlightAware ADS-B
Thu 10:33:11 AM 52.8002 39.4192 156° South 464 534 35,000  Level FlightAware ADS-B
Thu 10:35:00 AM 52.6296 39.5062 163° South  Level Estimated
Thu 10:36:00 AM 52.5356 39.5537 163° South  Level Estimated
Thu 10:37:00 AM 52.4417 39.6011 163° South  Level Estimated
Thu 10:38:00 AM 52.3476 39.6483 163° South  Level Estimated
Thu 10:39:00 AM 52.2536 39.6953 163° South  Level Estimated
Thu 10:40:00 AM 52.1596 39.7421 163° South  Level Estimated
Thu 10:41:00 AM 52.0655 39.7887 163° South  Level Estimated
Thu 10:42:00 AM 51.9715 39.8351 163° South  Level Estimated
Thu 10:43:00 AM 51.8774 39.8813 163° South  Level Estimated
Thu 10:44:00 AM 51.7833 39.9273 163° South  Level Estimated
Thu 10:45:00 AM 51.6891 39.9731 163° South  Level Estimated
Thu 10:46:00 AM 51.5950 40.0187 163° South  Level Estimated
Thu 10:47:00 AM 51.5008 40.0642 163° South  Level Estimated
Thu 10:48:00 AM 51.4066 40.1094 163° South  Level Estimated
Thu 10:49:00 AM 51.3124 40.1545 163° South  Level Estimated
Thu 10:50:00 AM 51.2182 40.1994 163° South  Level Estimated
Thu 10:51:00 AM 51.1240 40.2441 163° South  Level Estimated
Thu 10:52:00 AM 51.0297 40.2886 163° South  Level Estimated
Thu 10:53:00 AM 50.9355 40.3329 163° South  Level Estimated
Thu 10:54:00 AM 50.8412 40.3771 164° South  Level Estimated
Thu 10:55:00 AM 50.7469 40.4210 164° South  Level Estimated
Thu 10:56:00 AM 50.6526 40.4648 164° South  Level Estimated
Thu 10:57:00 AM 50.5582 40.5084 164° South  Level Estimated
Thu 10:58:00 AM 50.4639 40.5519 164° South  Level Estimated
Thu 10:59:00 AM 50.3695 40.5952 164° South  Level Estimated
Thu 11:00:00 AM 50.2751 40.6383 164° South  Level Estimated
Thu 11:01:00 AM 50.1807 40.6812 164° South  Level Estimated
Thu 11:02:00 AM 50.0863 40.7240 164° South  Level Estimated
Thu 11:03:00 AM 49.9919 40.7666 164° South  Level Estimated
Thu 11:04:00 AM 49.8974 40.8090 164° South  Level Estimated
Thu 11:05:00 AM 49.8030 40.8513 164° South  Level Estimated
Thu 11:06:00 AM 49.7085 40.8934 164° South  Level Estimated
Thu 11:07:00 AM 49.6140 40.9353 164° South  Level Estimated
Thu 11:08:00 AM 49.5195 40.9771 164° South  Level Estimated
Thu 11:09:00 AM 49.4250 41.0187 164° South  Level Estimated
Thu 11:10:00 AM 49.3305 41.0601 164° South  Level Estimated
Thu 11:11:00 AM 49.2359 41.1014 164° South  Level Estimated
Thu 11:12:00 AM 49.1413 41.1426 164° South  Level Estimated
Thu 11:13:00 AM 49.0468 41.1835 164° South  Level Estimated
Thu 11:14:00 AM 48.9522 41.2244 164° South  Level Estimated
Thu 11:15:00 AM 48.8576 41.2650 164° South  Level Estimated
Thu 11:16:00 AM 48.7629 41.3055 164° South  Level Estimated
Thu 11:17:00 AM 48.6683 41.3459 164° South  Level Estimated
Thu 11:18:00 AM 48.5737 41.3861 164° South  Level Estimated
Thu 11:19:00 AM 48.4790 41.4262 164° South  Level Estimated
Thu 11:20:00 AM 48.3843 41.4661 164° South  Level Estimated
Thu 11:21:00 AM 48.2896 41.5059 164° South  Level Estimated
Thu 11:22:00 AM 48.1949 41.5455 164° South  Level Estimated
Thu 11:23:00 AM 48.1002 41.5849 164° South  Level Estimated
Thu 11:24:00 AM 48.0055 41.6243 164° South  Level Estimated
Thu 11:25:00 AM 47.9107 41.6634 165° South  Level Estimated
Thu 11:26:00 AM 47.8160 41.7025 165° South  Level Estimated
Thu 11:27:00 AM 47.7212 41.7414 165° South  Level Estimated
Thu 11:28:00 AM 47.6264 41.7801 165° South  Level Estimated
Thu 11:29:00 AM 47.5316 41.8187 165° South  Level Estimated
Thu 11:30:00 AM 47.4368 41.8572 165° South  Level Estimated
Thu 11:31:00 AM 47.3420 41.8955 165° South  Level Estimated
Thu 11:32:00 AM 47.2471 41.9337 165° South  Level Estimated
Thu 11:33:00 AM 47.1523 41.9718 165° South  Level Estimated
Thu 11:34:00 AM 47.0574 42.0097 165° South  Level Estimated
Thu 11:35:00 AM 46.9625 42.0475 165° South  Level Estimated
Thu 11:36:00 AM 46.8676 42.0852 165° South  Level Estimated
Thu 11:37:00 AM 46.7728 42.1227 165° South  Level Estimated
Thu 11:38:00 AM 46.6778 42.1601 165° South  Level Estimated
Thu 11:39:00 AM 46.5829 42.1974 165° South  Level Estimated
Thu 11:40:00 AM 46.4880 42.2345 165° South  Level Estimated
Thu 11:41:00 AM 46.3930 42.2715 165° South  Level Estimated
Thu 11:42:00 AM 46.2981 42.3084 165° South  Level Estimated
Thu 11:43:00 AM 46.2031 42.3451 165° South  Level Estimated
Thu 11:44:00 AM 46.1081 42.3817 165° South  Level Estimated
Thu 11:45:00 AM 46.0131 42.4182 165° South  Level Estimated
Thu 11:46:00 AM 45.9181 42.4546 165° South  Level Estimated
Thu 11:47:00 AM 45.8231 42.4908 165° South  Level Estimated
Thu 11:48:00 AM 45.7281 42.5270 165° South  Level Estimated
Thu 11:49:00 AM 45.6330 42.5630 165° South  Level Estimated
Thu 11:50:00 AM 45.5380 42.5988 165° South  Level Estimated
Thu 11:51:00 AM 45.4429 42.6346 165° South  Level Estimated
Thu 11:52:00 AM 45.3478 42.6702 165° South  Level Estimated
Thu 11:53:00 AM 45.2528 42.7057 165° South  Level Estimated
Thu 11:54:00 AM 45.1576 42.7411 165° South  Level Estimated
Thu 11:55:00 AM 45.0625 42.7764 165° South  Level Estimated
Thu 11:56:00 AM 44.9674 42.8116 165° South  Level Estimated
Thu 11:57:00 AM 44.8723 42.8466 165° South  Level Estimated
Thu 11:58:00 AM 44.7772 42.8815 165° South  Level Estimated
Thu 11:59:00 AM 44.6820 42.9163 165° South  Level Estimated
Thu 12:00:00 PM 44.5868 42.9510 165° South  Level Estimated
Thu 12:01:00 PM 44.4917 42.9856 165° South  Level Estimated
Thu 12:02:00 PM 44.3965 43.0201 165° South  Level Estimated
Thu 12:03:00 PM 44.3013 43.0545 166° South  Level Estimated
Thu 12:04:00 PM 44.2251 43.0819 166° South  Level Estimated
Thu 12:05:00 PM 44.2251 43.0819 North  Level Estimated
Thu 12:06:00 PM 44.2251 43.0819 North  Level Estimated

Login

Don't have an account? Register now (free) for customized features, flight alerts, and more!